Terminal Aerodrome Forecast
Issued by NWS Los Angeles, CA

Home | Current Version | Previous Version | Text Only | Print | Product List | Glossary On
Versions: 1 2 3 4 5 6 7 8 9 10 11 12 13 14 15
000
FTUS46 KLOX 281100 RRA
TAFSMX
TAF
KSMX 281142Z 2812/2912 00000KT P6SM BKN200
     FM282000 31010KT P6SM BKN150 BKN200
     FM290300 VRB03KT P6SM SCT200=

USA.gov is the U.S. government's official web portal to all federal, state and local government web resources and services.